Walsenburg, Colorado
Current Conditions -  °F | °C
As of 7:54 PM on Monday 26 Jan 2015 (Local Time) from KTAD Reporting Station
Clear Clear  
Wind Chill: 37°   Ceiling: Unl
Heat Index: 44°   Visibility: 10mi
Dew Point: 29°   Wind: 16mph
Humidity: 55%   Direction: 240°WSW
Pressure: 30.29"   Gusts: NA
Location:  37.62°N, 104.78°W
Report Text: KTAD 270254Z AUTO 24014KT 10SM CLR 07/M02 A3029 RMK AO2 SLP243 T00671017 53005
Loading
Personal Weather Stations






























Interactive Weather Map New forecast layout! Learn more

10-Day Weather Forecast

Advertisements
Track Severe Weather on mobile